Havana, Alabama
Current Conditions -  °F | °C
As of 2:53 PM on Thursday 18 Dec 2014 (Local Time) from KTCL Reporting Station
Overcast Overcast  
Wind Chill: 12°   Ceiling: 4500
Heat Index: 12°   Visibility: 10mi
Dew Point: -2°   Wind: 0mph
Humidity: 40%   Direction: NA
Pressure: 30.16"   Gusts: NA
Location:  32.9469°N, 87.5552°W
Report Text: KTCL 182053Z 00000KT 10SM BKN045 OVC090 12/M02 A3016 RMK AO2 SLP215 60000 T01171017 56010
Loading
Personal Weather Stations






























Interactive Weather Map New forecast layout! Learn more

10-Day Weather Forecast

Advertisements
Track Severe Weather on mobile